Monatstabelle

Bitte in den Auwahlmenüs den gewünschte Zeiraum wählen und die Schaltfläche "Anfrage absenden" betätigen. Beginn der Aufzeichnung ist 2007 - Dezember. Vor diesem Zeitraum sind keine Daten verfügbar.

2017 - Dezember

 

Datum Temperatur (°C) Luftdruck (hPa) Luftfeuchte (%) Regen
(l/m²)
Wind (km/h)
avg: min: max: avg: min: max: avg: min: max: avg: max:
01.12.2017 0,8 -3,5 6,9 1013,0 1006,3 1016,1 86 72 90 0,8 0,8 8,9
02.12.2017 -1,0 -3,3 2,1 1020,0 1015,8 1020,9 83 74 90 0,0 7,1 15,3
03.12.2017 -2,0 -5,1 2,4 1019,2 1018,2 1020,6 75 61 83 0,1 9,7 22,4
04.12.2017 2,4 -4,8 4,4 1020,7 1018,5 1023,2 77 69 84 1,1 7,8 19,0
05.12.2017 4,8 2,1 5,9 1026,2 1023,2 1027,1 73 70 85 2,3 10,0 21,9
06.12.2017 1,6 -2,8 10,3 1025,0 1024,2 1027,4 77 54 87 0,0 1,7 18,0
07.12.2017 -0,2 -3,9 7,1 1019,1 1014,3 1024,8 84 73 90 0,1 2,2 5,6
08.12.2017 -0,3 -6,2 2,5 1008,0 1007,2 1014,3 85 72 90 0,0 4,2 10,0
09.12.2017 1,0 -0,6 3,1 1008,9 1006,2 1010,9 60 53 73 0,0 8,8 21,9
10.12.2017 1,6 -4,9 4,5 999,3 993,4 1011,1 60 42 71 0,0 13,3 23,7
11.12.2017 9,3 4,2 10,8 993,7 992,6 995,9 80 67 88 2,2 19,6 33,3
12.12.2017 5,4 2,9 11,1 1008,9 993,2 1014,8 85 76 89 6,2 2,3 15,0
13.12.2017 2,7 1,3 5,3 1011,0 1004,2 1017,1 77 71 87 0,0 7,6 14,6
14.12.2017 5,5 1,2 7,9 1000,5 998,4 1003,8 62 49 80 0,0 7,4 15,3
15.12.2017 3,3 -0,2 7,5 998,8 994,1 1000,4 77 61 86 0,0 1,7 12,1
16.12.2017 2,7 0,8 5,6 1006,9 999,2 1012,2 82 70 88 0,5 2,8 9,2
17.12.2017 -0,3 -2,7 5,3 1017,2 1012,4 1019,4 82 68 90 0,1 3,4 12,6
18.12.2017 -2,0 -5,1 2,7 1022,4 1019,4 1025,0 79 65 90 0,1 3,6 13,8
19.12.2017 -1,0 -7,0 3,5 1027,4 1024,5 1028,8 75 59 88 0,0 6,5 17,5
20.12.2017 1,9 -0,3 2,9 1028,5 1027,1 1029,5 80 72 84 0,0 6,2 12,1
21.12.2017 4,3 1,6 7,1 1026,9 1025,3 1029,4 80 68 88 0,5 2,4 11,1
22.12.2017 6,9 1,4 8,8 1026,1 1025,3 1027,6 75 66 88 0,0 11,0 25,7
23.12.2017 9,1 5,4 11,7 1023,3 1021,8 1026,4 66 56 72 0,0 11,6 26,2
24.12.2017 8,4 3,2 15,3 1020,2 1019,8 1022,6 60 42 71 0,0 5,9 12,7
25.12.2017 1,3 -2,2 8,9 1017,4 1013,9 1021,8 83 68 89 0,0 1,7 4,7
26.12.2017 -1,3 -3,7 0,1 1008,2 1005,7 1013,4 90 88 90 0,0 1,1 6,6
27.12.2017 5,5 -4,2 9,4 992,1 988,2 1005,3 80 72 91 0,3 8,1 22,7
28.12.2017 3,4 1,6 9,5 994,6 986,7 999,4 78 71 89 7,7 10,9 17,4
29.12.2017 -0,7 -4,5 4,7 1008,4 999,6 1010,7 67 53 79 0,0 8,3 22,0
30.12.2017 3,3 -3,4 7,1 1008,6 1006,8 1010,6 79 60 88 1,9 2,4 9,8
31.12.2017 8,1 1,5 16,3 1010,2 1007,6 1012,7 77 55 89 0,4 3,8 9,8
avg. 2,7 1013,2 76   ---
  Summe Regen: 24,5  
 
Min-Datum 19.12.2017 28.12.2017 10.12.2017 --- ---
Min-Zeit 06:32 04:00 11:16 --- ---
Minimum -7,0 986,7 42 --- ---
 

Max-Datum

31.12.2017 20.12.2017 27.12.2017 28.12.2017 11.12.2017
Max-Zeit 13:12 09:20 08:56 06:32 15:54
Maximum 16,3 1029,5 91 7,7 33,3
 

 

  Letztes Jahr
gleiches Monat
Eistage max < 0°C 0 3
Frosttage min < 0°C 19 24
Sommertage max >=25°C 0 0
Heiße Tage max >=30°C 0 0

 

<<< nach oben >>>